createdAt,value
2023-04-16T00:00:03.869Z,94.14
2023-04-16T00:01:12.610Z,93.57
2023-04-16T00:02:14.995Z,93.29
2023-04-16T00:03:17.048Z,93.43
2023-04-16T00:04:18.912Z,94.58
2023-04-16T00:05:20.565Z,94.41
2023-04-16T00:06:23.004Z,94.43
2023-04-16T00:07:24.755Z,94.41
2023-04-16T00:08:26.546Z,93.83
2023-04-16T00:09:28.129Z,94.29
2023-04-16T00:10:29.713Z,94.45
2023-04-16T00:11:31.341Z,94.17
2023-04-16T00:12:33.133Z,94.56
2023-04-16T00:13:35.553Z,95.45
2023-04-16T00:14:37.172Z,94.64
2023-04-16T00:15:38.789Z,95.02
2023-04-16T00:16:40.466Z,94.86
2023-04-16T00:17:42.217Z,94.36
2023-04-16T00:18:43.863Z,94.04
2023-04-16T00:19:45.587Z,94.96
2023-04-16T00:20:48.388Z,94.64
2023-04-16T00:21:49.967Z,95.17
2023-04-16T00:22:51.618Z,93.71
2023-04-16T00:23:53.337Z,93.68
2023-04-16T00:24:54.959Z,93.41
2023-04-16T00:25:59.802Z,94.30
2023-04-16T00:27:01.704Z,94.06
2023-04-16T00:28:05.031Z,94.40
2023-04-16T00:29:07.255Z,94.54
2023-04-16T00:30:09.476Z,94.50
2023-04-16T00:31:11.138Z,94.39
2023-04-16T00:32:12.781Z,94.50
2023-04-16T00:33:14.453Z,94.18
2023-04-16T00:34:16.072Z,94.12
2023-04-16T00:35:17.806Z,95.33
2023-04-16T00:36:19.364Z,94.45
2023-04-16T00:37:21.080Z,94.70
2023-04-16T00:38:22.796Z,94.04
2023-04-16T00:39:24.493Z,94.33
2023-04-16T00:40:29.274Z,94.57
2023-04-16T00:41:30.895Z,94.26
2023-04-16T00:42:32.570Z,94.70
2023-04-16T00:43:34.801Z,94.53
2023-04-16T00:44:36.444Z,95.13
2023-04-16T00:45:38.505Z,95.34
2023-04-16T00:46:41.846Z,94.33
2023-04-16T00:47:43.865Z,94.52
2023-04-16T00:48:45.839Z,94.33
2023-04-16T00:49:47.604Z,95.87
2023-04-16T00:50:49.241Z,95.52
2023-04-16T00:51:51.114Z,96.17
2023-04-16T00:52:52.954Z,94.34
2023-04-16T00:53:54.631Z,95.24
2023-04-16T00:54:56.480Z,95.03
2023-04-16T00:55:58.822Z,95.57
2023-04-16T00:57:01.639Z,95.26
2023-04-16T00:58:03.575Z,94.71
2023-04-16T00:59:05.500Z,94.11
2023-04-16T01:00:08.509Z,94.72
2023-04-16T01:01:10.092Z,94.47
2023-04-16T01:02:12.618Z,94.80
2023-04-16T01:03:14.453Z,94.81
2023-04-16T01:04:16.321Z,94.85
2023-04-16T01:05:19.613Z,94.12
2023-04-16T01:06:21.598Z,94.42
2023-04-16T01:07:23.875Z,94.18
2023-04-16T01:08:25.681Z,94.21
2023-04-16T01:09:27.341Z,94.02
2023-04-16T01:10:28.868Z,94.03
2023-04-16T01:11:30.421Z,94.24
2023-04-16T01:12:32.507Z,93.27
2023-04-16T01:13:35.073Z,93.62
2023-04-16T01:14:37.312Z,94.27
2023-04-16T01:15:38.973Z,94.38
2023-04-16T01:16:40.532Z,94.10
2023-04-16T01:17:42.036Z,93.70
2023-04-16T01:18:43.612Z,94.35
2023-04-16T01:19:45.265Z,94.11
2023-04-16T01:20:48.014Z,94.24
2023-04-16T01:21:49.603Z,94.12
2023-04-16T01:22:51.094Z,93.97
2023-04-16T01:23:52.623Z,93.63
2023-04-16T01:24:54.165Z,94.03
2023-04-16T01:25:55.806Z,94.00
2023-04-16T01:27:00.073Z,93.88
2023-04-16T01:28:01.575Z,94.31
2023-04-16T01:29:03.162Z,94.61
2023-04-16T01:30:05.218Z,94.21
2023-04-16T01:31:16.949Z,94.53
2023-04-16T01:32:33.339Z,95.10
2023-04-16T01:33:35.024Z,94.12
2023-04-16T01:34:36.692Z,94.70
2023-04-16T01:35:39.037Z,94.10
2023-04-16T01:36:40.539Z,94.96
2023-04-16T01:37:45.077Z,94.86
2023-04-16T01:38:47.053Z,95.11
2023-04-16T01:39:48.609Z,94.18
2023-04-16T01:40:50.264Z,93.96
2023-04-16T01:41:51.843Z,93.82
2023-04-16T01:42:53.455Z,95.30
2023-04-16T01:43:55.000Z,95.88
2023-04-16T01:44:58.893Z,94.43
2023-04-16T01:46:20.348Z,94.09
2023-04-16T01:47:22.744Z,95.11
2023-04-16T01:48:24.312Z,94.91
2023-04-16T01:49:28.197Z,94.18
2023-04-16T01:50:29.976Z,94.62
2023-04-16T01:51:32.235Z,94.97
2023-04-16T01:52:33.791Z,94.95
2023-04-16T01:53:37.104Z,95.26
2023-04-16T01:54:39.003Z,94.90
2023-04-16T01:55:40.578Z,94.41
2023-04-16T01:56:42.096Z,95.11
2023-04-16T01:57:43.934Z,94.76
2023-04-16T01:58:47.781Z,94.97
2023-04-16T01:59:51.222Z,95.34
2023-04-16T02:00:52.963Z,96.13
2023-04-16T02:01:54.616Z,95.61
2023-04-16T02:02:56.357Z,95.11
2023-04-16T02:04:01.700Z,95.17
2023-04-16T02:05:03.621Z,95.18
2023-04-16T02:06:05.260Z,95.87
2023-04-16T02:07:07.433Z,95.25
2023-04-16T02:08:09.208Z,95.20
2023-04-16T02:09:10.892Z,95.39
2023-04-16T02:10:13.670Z,94.98
2023-04-16T02:11:15.898Z,95.16
2023-04-16T02:12:17.904Z,94.53
2023-04-16T02:13:19.579Z,94.94
2023-04-16T02:14:25.456Z,94.49
2023-04-16T02:15:27.070Z,93.95
2023-04-16T02:16:29.340Z,94.59
2023-04-16T02:17:37.173Z,94.20
2023-04-16T02:18:43.157Z,94.27
2023-04-16T02:19:45.708Z,95.13
2023-04-16T02:20:47.925Z,94.24
2023-04-16T02:21:51.543Z,95.19
2023-04-16T02:22:53.127Z,94.91
2023-04-16T02:23:57.449Z,95.03
2023-04-16T02:25:02.475Z,94.74
2023-04-16T02:26:04.143Z,95.31
2023-04-16T02:27:05.777Z,95.53
2023-04-16T02:28:09.168Z,95.87
2023-04-16T02:29:14.789Z,95.92
2023-04-16T02:30:19.817Z,94.38
2023-04-16T02:31:22.722Z,94.08
2023-04-16T02:32:24.399Z,94.68
2023-04-16T02:33:26.671Z,94.73
2023-04-16T02:34:39.865Z,94.57
2023-04-16T02:35:41.704Z,94.95
2023-04-16T02:36:43.345Z,95.36
2023-04-16T02:37:44.846Z,95.40
2023-04-16T02:38:46.816Z,94.35
2023-04-16T02:39:49.773Z,94.22
2023-04-16T02:40:51.315Z,95.05
2023-04-16T02:41:52.842Z,95.21
2023-04-16T02:42:55.089Z,95.78
2023-04-16T02:43:57.209Z,96.28
2023-04-16T02:44:58.720Z,96.11
2023-04-16T02:46:00.373Z,96.68
2023-04-16T02:47:02.441Z,96.32
2023-04-16T02:48:04.214Z,95.92
2023-04-16T02:49:05.853Z,96.06
2023-04-16T02:50:08.009Z,95.33
2023-04-16T02:51:11.732Z,95.68
2023-04-16T02:52:15.092Z,95.61
2023-04-16T02:53:17.235Z,95.87
2023-04-16T02:54:18.786Z,95.63
2023-04-16T02:55:20.386Z,95.55
2023-04-16T02:56:21.893Z,95.48
2023-04-16T02:57:23.432Z,94.92
2023-04-16T02:58:26.262Z,95.16
2023-04-16T02:59:27.769Z,94.65
2023-04-16T03:00:29.320Z,95.64
2023-04-16T03:01:31.014Z,95.50
2023-04-16T03:02:32.792Z,94.87
2023-04-16T03:03:34.462Z,95.68
2023-04-16T03:04:36.138Z,94.75
2023-04-16T03:05:40.184Z,95.20
2023-04-16T03:06:41.898Z,95.16
2023-04-16T03:07:43.506Z,96.00
2023-04-16T03:08:45.355Z,95.65
2023-04-16T03:09:47.149Z,96.52
2023-04-16T03:10:48.695Z,96.58
2023-04-16T03:11:50.246Z,95.70
2023-04-16T03:12:51.815Z,96.04
2023-04-16T03:13:53.833Z,96.48
2023-04-16T03:14:55.360Z,95.85
2023-04-16T03:15:56.868Z,96.58
2023-04-16T03:16:58.804Z,96.14
2023-04-16T03:18:00.777Z,95.75
2023-04-16T03:19:05.075Z,95.62
2023-04-16T03:20:07.415Z,95.02
2023-04-16T03:21:08.922Z,96.09
2023-04-16T03:22:10.422Z,94.79
2023-04-16T03:23:11.912Z,95.25
2023-04-16T03:24:13.576Z,95.16
2023-04-16T03:25:16.447Z,94.96
2023-04-16T03:26:17.961Z,95.75
2023-04-16T03:27:19.734Z,95.44
2023-04-16T03:28:21.443Z,95.88
2023-04-16T03:29:23.099Z,95.35
2023-04-16T03:30:24.666Z,95.52
2023-04-16T03:31:26.228Z,96.20
2023-04-16T03:32:29.596Z,96.71
2023-04-16T03:33:31.206Z,96.22
2023-04-16T03:34:32.825Z,95.49
2023-04-16T03:35:34.665Z,95.65
2023-04-16T03:36:37.020Z,94.85
2023-04-16T03:37:38.892Z,95.61
2023-04-16T03:38:40.553Z,95.88
2023-04-16T03:39:42.457Z,95.85
2023-04-16T03:40:45.730Z,96.35
2023-04-16T03:41:49.684Z,96.10
2023-04-16T03:42:51.342Z,95.43
2023-04-16T03:43:52.828Z,95.84
2023-04-16T03:44:54.447Z,95.81
2023-04-16T03:45:57.171Z,95.98
2023-04-16T03:46:59.384Z,96.32
2023-04-16T03:48:01.214Z,95.94
2023-04-16T03:49:02.846Z,96.41
2023-04-16T03:50:04.719Z,95.68
2023-04-16T03:51:06.241Z,95.98
2023-04-16T03:52:08.743Z,95.84
2023-04-16T03:53:10.391Z,95.43
2023-04-16T03:54:12.344Z,95.33
2023-04-16T03:55:14.033Z,94.53
2023-04-16T03:56:16.138Z,95.61
2023-04-16T03:57:17.768Z,96.48
2023-04-16T03:58:20.798Z,95.90
2023-04-16T03:59:22.718Z,95.73
2023-04-16T04:00:24.296Z,96.23
2023-04-16T04:01:34.551Z,95.75
2023-04-16T04:02:36.558Z,96.31
2023-04-16T04:03:38.961Z,95.90
2023-04-16T04:04:40.948Z,96.75
2023-04-16T04:05:43.803Z,96.30
2023-04-16T04:06:48.094Z,95.93
2023-04-16T04:07:50.096Z,95.41
2023-04-16T04:08:51.622Z,96.09
2023-04-16T04:09:53.235Z,95.87
2023-04-16T04:10:55.456Z,96.64
2023-04-16T04:11:58.811Z,95.90
2023-04-16T04:13:01.324Z,95.28
2023-04-16T04:14:02.734Z,96.29
2023-04-16T04:15:04.654Z,96.21
2023-04-16T04:16:06.421Z,96.63
2023-04-16T04:17:08.902Z,96.08
2023-04-16T04:18:10.662Z,95.44
2023-04-16T04:19:12.299Z,95.51
2023-04-16T04:20:14.042Z,96.54
2023-04-16T04:21:18.988Z,95.85
2023-04-16T04:22:20.583Z,95.74
2023-04-16T04:23:22.121Z,95.36
2023-04-16T04:24:24.399Z,95.42
2023-04-16T04:25:25.944Z,96.54
2023-04-16T04:26:27.753Z,96.33
2023-04-16T04:27:29.304Z,96.17
2023-04-16T04:28:31.718Z,96.46
2023-04-16T04:29:35.179Z,97.04
2023-04-16T04:30:36.785Z,96.42
2023-04-16T04:31:39.541Z,96.96
2023-04-16T04:32:41.333Z,96.33
2023-04-16T04:33:44.330Z,97.13
2023-04-16T04:34:47.237Z,96.16
2023-04-16T04:35:48.814Z,96.51
2023-04-16T04:36:50.604Z,95.80
2023-04-16T04:37:52.114Z,96.05
2023-04-16T04:38:55.128Z,96.68
2023-04-16T04:39:57.216Z,96.50
2023-04-16T04:40:59.482Z,96.48
2023-04-16T04:42:03.616Z,96.53
2023-04-16T04:43:05.336Z,95.48
2023-04-16T04:44:07.843Z,95.41
2023-04-16T04:45:10.313Z,96.08
2023-04-16T04:46:11.984Z,95.57
2023-04-16T04:47:15.324Z,95.73
2023-04-16T04:48:17.247Z,95.86
2023-04-16T04:49:19.068Z,95.54
2023-04-16T04:50:21.639Z,95.95
2023-04-16T04:51:23.017Z,95.50
2023-04-16T04:52:24.601Z,95.50
2023-04-16T04:53:26.233Z,96.22
2023-04-16T04:54:28.899Z,95.98
2023-04-16T04:55:30.500Z,96.58
2023-04-16T04:56:33.236Z,95.96
2023-04-16T04:57:34.854Z,96.47
2023-04-16T04:58:37.218Z,94.73
2023-04-16T04:59:38.746Z,95.26
2023-04-16T05:00:40.374Z,95.73
2023-04-16T05:01:42.000Z,95.11
2023-04-16T05:02:43.724Z,94.78
2023-04-16T05:03:45.391Z,95.69
2023-04-16T05:04:47.020Z,94.97
2023-04-16T05:05:48.569Z,95.90
2023-04-16T05:06:50.045Z,95.67
2023-04-16T05:07:51.615Z,95.58
2023-04-16T05:08:53.126Z,95.53
2023-04-16T05:09:54.648Z,95.21
2023-04-16T05:10:56.162Z,94.88
2023-04-16T05:11:57.744Z,95.17
2023-04-16T05:12:59.362Z,95.76
2023-04-16T05:14:00.960Z,95.79
2023-04-16T05:15:02.498Z,95.13
2023-04-16T05:16:04.223Z,94.45
2023-04-16T05:17:06.102Z,94.84
2023-04-16T05:18:07.697Z,95.87
2023-04-16T05:19:09.452Z,94.84
2023-04-16T05:20:11.242Z,94.67
2023-04-16T05:21:12.864Z,94.46
2023-04-16T05:22:14.411Z,94.28
2023-04-16T05:23:15.962Z,94.43
2023-04-16T05:24:17.594Z,94.46
2023-04-16T05:25:19.178Z,95.08
2023-04-16T05:26:20.811Z,94.41
2023-04-16T05:27:22.363Z,95.48
2023-04-16T05:28:23.964Z,95.08
2023-04-16T05:29:25.890Z,94.81
2023-04-16T05:30:27.403Z,93.99
2023-04-16T05:31:29.022Z,94.79
2023-04-16T05:32:30.574Z,94.36
2023-04-16T05:33:32.158Z,94.55
2023-04-16T05:34:33.736Z,94.63
2023-04-16T05:35:35.328Z,94.74
2023-04-16T05:36:36.930Z,94.88
2023-04-16T05:37:38.479Z,94.63
2023-04-16T05:38:40.231Z,94.35
2023-04-16T05:39:41.746Z,94.88
2023-04-16T05:40:43.287Z,94.17
2023-04-16T05:41:44.854Z,94.35
2023-04-16T05:42:46.372Z,93.62
2023-04-16T05:43:47.912Z,94.30
2023-04-16T05:44:51.152Z,94.35
2023-04-16T05:45:52.716Z,93.48
2023-04-16T05:46:54.484Z,94.22
2023-04-16T05:47:56.060Z,93.66
2023-04-16T05:48:57.729Z,93.54
2023-04-16T05:49:59.271Z,93.25
2023-04-16T05:51:02.144Z,93.54
2023-04-16T05:52:05.219Z,93.78
2023-04-16T05:53:08.253Z,93.04
2023-04-16T05:54:09.816Z,93.29
2023-04-16T05:55:11.378Z,93.82
2023-04-16T05:56:12.918Z,93.20
2023-04-16T05:57:14.577Z,93.71
2023-04-16T05:58:16.181Z,93.44
2023-04-16T05:59:17.725Z,93.66
2023-04-16T06:00:19.289Z,94.07
2023-04-16T06:01:21.403Z,93.72
2023-04-16T06:02:23.204Z,93.85
2023-04-16T06:03:24.945Z,94.13
2023-04-16T06:04:26.562Z,93.75
2023-04-16T06:05:28.620Z,94.35
2023-04-16T06:06:30.214Z,94.12
2023-04-16T06:07:31.676Z,93.05
2023-04-16T06:08:33.224Z,93.13
2023-04-16T06:09:34.756Z,92.57
2023-04-16T06:10:36.324Z,93.03
2023-04-16T06:11:37.884Z,93.43
2023-04-16T06:12:39.401Z,93.58
2023-04-16T06:13:42.885Z,92.33
2023-04-16T06:14:44.423Z,93.26
2023-04-16T06:15:45.955Z,93.59
2023-04-16T06:16:47.561Z,93.94
2023-04-16T06:17:49.997Z,93.26
2023-04-16T06:18:51.416Z,92.96
2023-04-16T06:19:53.092Z,92.76
2023-04-16T06:20:54.876Z,93.67
2023-04-16T06:21:59.419Z,92.70
2023-04-16T06:23:00.970Z,92.79
2023-04-16T06:24:02.545Z,93.83
2023-04-16T06:25:04.414Z,93.17
2023-04-16T06:26:06.229Z,93.35
2023-04-16T06:27:07.752Z,92.85
2023-04-16T06:28:09.354Z,93.19
2023-04-16T06:29:11.763Z,93.82
2023-04-16T06:30:14.235Z,93.99
2023-04-16T06:31:15.839Z,93.98
2023-04-16T06:32:17.540Z,93.38
2023-04-16T06:33:19.227Z,94.00
2023-04-16T06:34:20.842Z,94.08
2023-04-16T06:35:22.476Z,93.94
2023-04-16T06:36:24.004Z,93.81
2023-04-16T06:37:25.527Z,92.89
2023-04-16T06:38:27.003Z,93.08
2023-04-16T06:39:28.506Z,93.17
2023-04-16T06:40:30.102Z,92.95
2023-04-16T06:41:31.702Z,92.98
2023-04-16T06:42:33.265Z,92.90
2023-04-16T06:43:34.860Z,93.65
2023-04-16T06:44:36.500Z,94.02
2023-04-16T06:45:38.099Z,94.43
2023-04-16T06:46:39.938Z,94.54
2023-04-16T06:47:41.571Z,94.64
2023-04-16T06:48:43.121Z,93.08
2023-04-16T06:49:44.629Z,93.27
2023-04-16T06:50:46.166Z,93.79
2023-04-16T06:51:47.745Z,93.33
2023-04-16T06:52:49.279Z,93.97
2023-04-16T06:53:51.143Z,93.53
2023-04-16T06:54:52.756Z,93.70
2023-04-16T06:55:54.321Z,93.32
2023-04-16T06:56:55.962Z,92.75
2023-04-16T06:57:57.471Z,92.92
2023-04-16T06:59:00.895Z,93.61
2023-04-16T07:00:03.387Z,93.47
2023-04-16T07:01:05.648Z,93.11
2023-04-16T07:02:09.525Z,93.69
2023-04-16T07:03:11.290Z,93.52
2023-04-16T07:04:13.050Z,93.94
2023-04-16T07:05:14.650Z,93.14
2023-04-16T07:06:16.191Z,93.45
2023-04-16T07:07:18.011Z,93.27
2023-04-16T07:08:19.510Z,92.68
2023-04-16T07:09:21.114Z,93.75
2023-04-16T07:10:22.671Z,92.73
2023-04-16T07:11:27.577Z,91.70
2023-04-16T07:12:29.119Z,92.56
2023-04-16T07:13:30.658Z,92.18
2023-04-16T07:14:32.295Z,92.67
2023-04-16T07:15:33.824Z,92.66
2023-04-16T07:16:37.620Z,92.43
2023-04-16T07:17:39.307Z,92.90
2023-04-16T07:18:40.951Z,92.44
2023-04-16T07:19:42.550Z,91.81
2023-04-16T07:20:44.080Z,92.67
2023-04-16T07:21:46.121Z,91.92
2023-04-16T07:22:47.758Z,92.17
2023-04-16T07:23:49.271Z,91.99
2023-04-16T07:24:50.869Z,92.77
2023-04-16T07:25:52.578Z,93.05
2023-04-16T07:26:54.106Z,93.12
2023-04-16T07:27:55.602Z,92.86
2023-04-16T07:28:57.160Z,93.16
2023-04-16T07:29:58.765Z,92.91
2023-04-16T07:31:00.595Z,93.37
2023-04-16T07:32:02.243Z,92.37
2023-04-16T07:33:04.162Z,92.57
2023-04-16T07:34:05.802Z,92.37
2023-04-16T07:35:07.585Z,92.57
2023-04-16T07:36:09.129Z,92.66
2023-04-16T07:37:10.812Z,92.22
2023-04-16T07:38:12.472Z,92.25
2023-04-16T07:39:13.956Z,92.38
2023-04-16T07:40:15.809Z,93.15
2023-04-16T07:41:17.355Z,92.27
2023-04-16T07:42:18.973Z,92.67
2023-04-16T07:43:20.725Z,92.31
2023-04-16T07:44:22.403Z,91.26
2023-04-16T07:45:24.006Z,91.67
2023-04-16T07:46:28.343Z,91.80
2023-04-16T07:47:34.884Z,91.98
2023-04-16T07:48:36.432Z,92.97
2023-04-16T07:49:38.073Z,92.46
2023-04-16T07:50:39.676Z,92.98
2023-04-16T07:51:41.272Z,91.89
2023-04-16T07:52:43.670Z,91.10
2023-04-16T07:53:45.167Z,91.89
2023-04-16T07:54:47.072Z,91.69
2023-04-16T07:55:49.587Z,91.89
2023-04-16T07:56:51.070Z,90.86
2023-04-16T07:57:52.762Z,92.00
2023-04-16T07:58:54.401Z,91.29
2023-04-16T07:59:56.079Z,91.64
2023-04-16T08:00:58.349Z,91.98
2023-04-16T08:02:00.102Z,91.84
2023-04-16T08:03:02.090Z,91.61
2023-04-16T08:04:03.945Z,91.16
2023-04-16T08:05:06.179Z,90.52
2023-04-16T08:06:07.754Z,91.15
2023-04-16T08:07:09.514Z,90.61
2023-04-16T08:08:11.112Z,90.64
2023-04-16T08:09:12.736Z,90.47
2023-04-16T08:10:14.326Z,90.27
2023-04-16T08:11:15.872Z,90.54
2023-04-16T08:12:17.796Z,90.50
2023-04-16T08:13:19.322Z,91.15
2023-04-16T08:14:20.856Z,89.45
2023-04-16T08:15:22.425Z,89.15
2023-04-16T08:16:24.117Z,89.82
2023-04-16T08:17:25.865Z,89.34
2023-04-16T08:18:27.553Z,88.86
2023-04-16T08:19:29.104Z,87.99
2023-04-16T08:20:31.406Z,88.77
2023-04-16T08:21:33.673Z,88.99
2023-04-16T08:22:35.639Z,88.65
2023-04-16T08:23:37.181Z,89.84
2023-04-16T08:24:38.876Z,88.30
2023-04-16T08:25:40.559Z,89.49
2023-04-16T08:26:42.129Z,89.53
2023-04-16T08:27:43.708Z,89.52
2023-04-16T08:28:45.454Z,89.87
2023-04-16T08:29:48.151Z,90.15
2023-04-16T08:30:49.684Z,88.78
2023-04-16T08:31:51.410Z,90.19
2023-04-16T08:32:53.251Z,90.69
2023-04-16T08:33:54.886Z,90.93
2023-04-16T08:34:57.177Z,90.42
2023-04-16T08:35:58.761Z,89.74
2023-04-16T08:37:00.459Z,91.16
2023-04-16T08:38:04.708Z,89.43
2023-04-16T08:39:06.280Z,89.50
2023-04-16T08:40:08.409Z,89.48
2023-04-16T08:41:12.894Z,90.78
2023-04-16T08:42:23.850Z,89.69
2023-04-16T08:43:26.039Z,89.54
2023-04-16T08:44:30.350Z,89.86
2023-04-16T08:45:34.990Z,90.22
2023-04-16T08:46:37.989Z,91.03
2023-04-16T08:47:40.099Z,90.53
2023-04-16T08:48:43.428Z,90.58
2023-04-16T08:49:46.222Z,90.54
2023-04-16T08:50:49.523Z,90.42
2023-04-16T08:51:55.348Z,89.99
2023-04-16T08:53:00.531Z,90.85
2023-04-16T08:54:09.441Z,91.30
2023-04-16T08:55:14.404Z,90.61
2023-04-16T08:56:17.569Z,91.92
2023-04-16T08:57:20.488Z,90.95
2023-04-16T08:58:22.808Z,92.22
2023-04-16T08:59:25.864Z,92.15
2023-04-16T09:00:28.510Z,91.87
2023-04-16T09:01:30.308Z,92.09
2023-04-16T09:02:32.053Z,92.20
2023-04-16T09:03:36.298Z,92.32
2023-04-16T09:04:38.600Z,92.42
2023-04-16T09:05:40.423Z,92.03
2023-04-16T09:06:42.574Z,90.48
2023-04-16T09:07:48.411Z,89.83
2023-04-16T09:08:49.984Z,89.88
2023-04-16T09:09:52.195Z,89.58
2023-04-16T09:10:55.559Z,90.92
2023-04-16T09:11:57.170Z,91.08
2023-04-16T09:12:58.821Z,90.94
2023-04-16T09:14:00.893Z,89.95
2023-04-16T09:15:03.417Z,90.53
2023-04-16T09:16:06.195Z,90.21
2023-04-16T09:17:09.084Z,90.63
2023-04-16T09:18:12.095Z,90.28
2023-04-16T09:19:14.871Z,89.78
2023-04-16T09:20:19.887Z,89.82
2023-04-16T09:21:23.921Z,88.97
2023-04-16T09:22:25.786Z,89.43
2023-04-16T09:23:27.328Z,88.67
2023-04-16T09:24:29.102Z,87.71
2023-04-16T09:25:37.279Z,87.79
2023-04-16T09:26:39.001Z,88.37
2023-04-16T09:27:40.742Z,88.11
2023-04-16T09:28:45.285Z,88.67
2023-04-16T09:29:46.845Z,88.91
2023-04-16T09:30:48.421Z,87.05
2023-04-16T09:32:07.052Z,88.17
2023-04-16T09:33:22.237Z,89.67
2023-04-16T09:34:24.127Z,89.38
2023-04-16T09:35:25.791Z,89.86
2023-04-16T09:36:28.129Z,90.39
2023-04-16T09:37:30.856Z,88.74
2023-04-16T09:38:52.573Z,88.47
2023-04-16T09:39:59.033Z,89.09
2023-04-16T09:41:10.577Z,88.36
2023-04-16T09:42:12.357Z,89.10
2023-04-16T09:43:15.781Z,89.89
2023-04-16T09:44:17.406Z,89.19
2023-04-16T09:45:19.023Z,89.03
2023-04-16T09:46:20.715Z,90.58
2023-04-16T09:47:23.676Z,90.47
2023-04-16T09:48:30.019Z,89.65
2023-04-16T09:49:34.630Z,88.79
2023-04-16T09:50:36.248Z,89.38
2023-04-16T09:51:38.733Z,87.98
2023-04-16T09:52:40.298Z,87.87
2023-04-16T09:53:42.016Z,88.50
2023-04-16T09:54:47.663Z,87.41
2023-04-16T09:55:49.307Z,88.06
2023-04-16T09:56:50.929Z,87.70
2023-04-16T09:58:00.058Z,87.23
2023-04-16T09:59:01.753Z,87.90
2023-04-16T10:00:09.059Z,87.71
2023-04-16T10:01:12.554Z,87.37
2023-04-16T10:02:15.637Z,87.35
2023-04-16T10:03:18.216Z,88.15
2023-04-16T10:04:20.488Z,88.49
2023-04-16T10:05:22.175Z,87.49
2023-04-16T10:06:26.791Z,88.80
2023-04-16T10:07:30.283Z,88.48
2023-04-16T10:08:31.936Z,88.69
2023-04-16T10:09:38.352Z,89.17
2023-04-16T10:10:40.482Z,88.06
2023-04-16T10:11:42.357Z,88.47
2023-04-16T10:12:43.923Z,88.40
2023-04-16T10:13:46.351Z,87.67
2023-04-16T10:14:49.970Z,87.65
2023-04-16T10:15:52.119Z,89.33
2023-04-16T10:16:54.630Z,89.29
2023-04-16T10:17:56.106Z,89.05
2023-04-16T10:18:58.687Z,89.01
2023-04-16T10:20:01.492Z,88.22
2023-04-16T10:21:03.409Z,90.75
2023-04-16T10:22:05.695Z,89.74
2023-04-16T10:23:07.365Z,88.90
2023-04-16T10:24:09.624Z,89.59
2023-04-16T10:25:11.566Z,89.92
2023-04-16T10:26:13.626Z,87.62
2023-04-16T10:27:16.611Z,89.10
2023-04-16T10:28:18.898Z,88.73
2023-04-16T10:29:21.598Z,87.87
2023-04-16T10:30:23.348Z,88.74
2023-04-16T10:31:25.573Z,88.38
2023-04-16T10:32:28.687Z,87.12
2023-04-16T10:33:32.767Z,86.35
2023-04-16T10:34:35.175Z,86.99
2023-04-16T10:35:40.409Z,87.19
2023-04-16T10:36:42.069Z,87.48
2023-04-16T10:37:45.075Z,87.21
2023-04-16T10:38:48.571Z,86.72
2023-04-16T10:39:52.548Z,87.13
2023-04-16T10:41:02.989Z,87.17
2023-04-16T10:42:12.135Z,88.15
2023-04-16T10:43:19.232Z,88.16
2023-04-16T10:44:20.884Z,89.15
2023-04-16T10:45:32.813Z,88.19
2023-04-16T10:46:38.847Z,88.94
2023-04-16T10:47:40.706Z,87.93
2023-04-16T10:48:49.845Z,87.74
2023-04-16T10:49:52.430Z,89.58
2023-04-16T10:50:57.818Z,87.92
2023-04-16T10:52:03.686Z,89.38
2023-04-16T10:53:27.993Z,87.55
2023-04-16T10:54:30.868Z,87.82
2023-04-16T10:55:33.850Z,89.18
2023-04-16T10:56:36.501Z,88.35
2023-04-16T10:57:38.201Z,87.53
2023-04-16T10:58:40.296Z,88.27
2023-04-16T10:59:43.266Z,89.26
2023-04-16T11:00:51.261Z,86.87
2023-04-16T11:01:54.889Z,87.64
2023-04-16T11:02:56.740Z,87.76
2023-04-16T11:04:01.927Z,88.96
2023-04-16T11:05:04.083Z,87.89
2023-04-16T11:06:17.434Z,87.79
2023-04-16T11:07:20.690Z,87.95
2023-04-16T11:08:23.051Z,87.51
2023-04-16T11:09:47.654Z,88.07
2023-04-16T11:10:49.411Z,87.86
2023-04-16T11:11:51.066Z,88.68
2023-04-16T11:12:53.561Z,88.10
2023-04-16T11:13:56.305Z,88.67
2023-04-16T11:15:14.251Z,88.36
2023-04-16T11:16:16.992Z,88.84
2023-04-16T11:17:19.737Z,89.25
2023-04-16T11:18:21.433Z,88.18
2023-04-16T11:19:23.070Z,88.12
2023-04-16T11:20:26.549Z,88.39
2023-04-16T11:21:28.642Z,88.92
2023-04-16T11:22:30.362Z,88.68
2023-04-16T11:23:46.312Z,88.20
2023-04-16T11:24:48.067Z,87.12
2023-04-16T11:25:55.857Z,87.43
2023-04-16T11:26:57.707Z,86.34
2023-04-16T11:27:59.475Z,85.64
2023-04-16T11:29:01.333Z,84.42
2023-04-16T11:30:05.420Z,84.82
2023-04-16T11:31:12.300Z,85.75
2023-04-16T11:32:22.031Z,84.32
2023-04-16T11:33:25.341Z,84.43
2023-04-16T11:34:27.043Z,84.77
2023-04-16T11:35:28.725Z,86.20
2023-04-16T11:36:43.379Z,85.95
2023-04-16T11:37:45.178Z,85.52
2023-04-16T11:38:47.419Z,84.51
2023-04-16T11:39:52.838Z,84.61
2023-04-16T11:40:55.134Z,83.16
2023-04-16T11:41:56.832Z,85.25
2023-04-16T11:43:17.470Z,84.12
2023-04-16T11:44:28.177Z,84.82
2023-04-16T11:45:29.837Z,83.30
2023-04-16T11:46:40.830Z,83.80
2023-04-16T11:47:55.154Z,81.66
2023-04-16T11:48:56.940Z,81.93
2023-04-16T11:49:59.002Z,83.37
2023-04-16T11:51:00.816Z,83.28
2023-04-16T11:52:02.408Z,83.79
2023-04-16T11:53:06.367Z,83.17
2023-04-16T11:54:11.681Z,84.08
2023-04-16T11:55:13.779Z,84.49
2023-04-16T11:56:15.924Z,84.89
2023-04-16T11:57:32.876Z,85.19
2023-04-16T11:58:34.510Z,84.55
2023-04-16T11:59:37.043Z,84.13
2023-04-16T12:00:38.628Z,86.00
2023-04-16T12:01:45.433Z,85.51
2023-04-16T12:02:51.866Z,83.72
2023-04-16T12:04:02.344Z,85.25
2023-04-16T12:05:30.343Z,84.73
2023-04-16T12:06:32.835Z,85.36
2023-04-16T12:07:44.571Z,84.39
2023-04-16T12:08:46.148Z,84.78
2023-04-16T12:09:47.756Z,84.74
2023-04-16T12:10:56.062Z,85.40
2023-04-16T12:11:57.926Z,84.74
2023-04-16T12:13:19.801Z,86.92
2023-04-16T12:14:21.630Z,86.37
2023-04-16T12:15:23.338Z,86.74
2023-04-16T12:16:26.234Z,86.71
2023-04-16T12:17:27.931Z,89.29
2023-04-16T12:18:29.619Z,88.36
2023-04-16T12:19:31.492Z,88.75
2023-04-16T12:20:40.299Z,89.55
2023-04-16T12:21:42.703Z,90.27
2023-04-16T12:22:49.497Z,90.16
2023-04-16T12:23:53.723Z,88.70
2023-04-16T12:25:06.872Z,90.96
2023-04-16T12:26:10.616Z,87.45
2023-04-16T12:27:12.964Z,89.25
2023-04-16T12:28:16.511Z,89.37
2023-04-16T12:29:19.713Z,89.38
2023-04-16T12:30:26.359Z,87.88
2023-04-16T12:31:38.146Z,88.44
2023-04-16T12:32:40.935Z,89.65
2023-04-16T12:33:42.727Z,88.22
2023-04-16T12:34:51.636Z,88.66
2023-04-16T12:35:53.300Z,88.54
2023-04-16T12:37:09.608Z,89.83
2023-04-16T12:38:12.029Z,89.77
2023-04-16T12:39:13.976Z,89.02
2023-04-16T12:40:18.192Z,89.66
2023-04-16T12:41:19.786Z,89.78
2023-04-16T12:42:21.594Z,91.10
2023-04-16T12:43:23.312Z,89.64
2023-04-16T12:44:27.827Z,90.03
2023-04-16T12:45:29.469Z,89.39
2023-04-16T12:46:31.310Z,88.40
2023-04-16T12:47:33.122Z,87.98
2023-04-16T12:48:34.911Z,88.10
2023-04-16T12:49:37.453Z,88.51
2023-04-16T12:50:39.747Z,89.05
2023-04-16T12:51:41.597Z,89.47
2023-04-16T12:52:43.413Z,90.17
2023-04-16T12:53:45.042Z,89.25
2023-04-16T12:54:46.624Z,90.04
2023-04-16T12:55:48.328Z,90.08
2023-04-16T12:56:49.916Z,89.02
2023-04-16T12:57:53.004Z,87.74
2023-04-16T12:58:54.811Z,88.03
2023-04-16T12:59:57.174Z,88.33
2023-04-16T13:00:59.823Z,89.37
2023-04-16T13:02:02.591Z,88.32
2023-04-16T13:03:04.743Z,88.73
2023-04-16T13:04:07.743Z,88.45
2023-04-16T13:05:09.683Z,87.79
2023-04-16T13:06:11.410Z,89.16
2023-04-16T13:07:12.992Z,88.94
2023-04-16T13:08:14.644Z,88.29
2023-04-16T13:09:16.409Z,87.83
2023-04-16T13:10:18.093Z,88.74
2023-04-16T13:11:20.233Z,89.58
2023-04-16T13:12:21.853Z,87.76
2023-04-16T13:13:23.492Z,89.28
2023-04-16T13:14:26.248Z,89.03
2023-04-16T13:15:27.891Z,89.58
2023-04-16T13:16:29.501Z,89.20
2023-04-16T13:17:31.277Z,89.57
2023-04-16T13:18:33.029Z,88.70
2023-04-16T13:19:34.692Z,87.91
2023-04-16T13:20:36.419Z,86.56
2023-04-16T13:21:38.081Z,88.08
2023-04-16T13:22:39.765Z,86.40
2023-04-16T13:23:41.438Z,86.93
2023-04-16T13:24:43.010Z,86.88
2023-04-16T13:25:44.637Z,84.40
2023-04-16T13:26:46.222Z,84.57
2023-04-16T13:27:47.820Z,84.64
2023-04-16T13:28:49.453Z,83.95